Map

Track Data

SID SEASON NUMBER BASIN SUBBASIN NAME ISO_TIME NATURE LAT LON WMO_WIND WMO_PRES WMO_AGENCY TRACK_TYPE DIST2LAND LANDFALL IFLAG USA_AGENCY USA_ATCF_ID USA_LAT USA_LON USA_RECORD USA_STATUS USA_WIND USA_PRES USA_SSHS USA_R34_NE USA_R34_SE USA_R34_SW USA_R34_NW USA_R50_NE USA_R50_SE USA_R50_SW USA_R50_NW USA_R64_NE USA_R64_SE USA_R64_SW USA_R64_NW USA_POCI USA_ROCI USA_RMW USA_EYE TOKYO_LAT TOKYO_LON TOKYO_GRADE TOKYO_WIND TOKYO_PRES TOKYO_R50_DIR TOKYO_R50_LONG TOKYO_R50_SHORT TOKYO_R30_DIR TOKYO_R30_LONG TOKYO_R30_SHORT TOKYO_LAND CMA_LAT CMA_LON CMA_CAT CMA_WIND CMA_PRES HKO_LAT HKO_LON HKO_CAT HKO_WIND HKO_PRES NEWDELHI_LAT NEWDELHI_LON NEWDELHI_GRADE NEWDELHI_WIND NEWDELHI_PRES NEWDELHI_CI NEWDELHI_DP NEWDELHI_POCI REUNION_LAT REUNION_LON REUNION_TYPE REUNION_WIND REUNION_PRES REUNION_TNUM REUNION_CI REUNION_RMW REUNION_R34_NE REUNION_R34_SE REUNION_R34_SW REUNION_R34_NW REUNION_R50_NE REUNION_R50_SE REUNION_R50_SW REUNION_R50_NW REUNION_R64_NE REUNION_R64_SE REUNION_R64_SW REUNION_R64_NW BOM_LAT BOM_LON BOM_TYPE BOM_WIND BOM_PRES BOM_TNUM BOM_CI BOM_RMW BOM_R34_NE BOM_R34_SE BOM_R34_SW BOM_R34_NW BOM_R50_NE BOM_R50_SE BOM_R50_SW BOM_R50_NW BOM_R64_NE BOM_R64_SE BOM_R64_SW BOM_R64_NW BOM_ROCI BOM_POCI BOM_EYE BOM_POS_METHOD BOM_PRES_METHOD NADI_LAT NADI_LON NADI_CAT NADI_WIND NADI_PRES WELLINGTON_LAT WELLINGTON_LON WELLINGTON_WIND WELLINGTON_PRES DS824_LAT DS824_LON DS824_STAGE DS824_WIND DS824_PRES TD9636_LAT TD9636_LON TD9636_STAGE TD9636_WIND TD9636_PRES TD9635_LAT TD9635_LON TD9635_WIND TD9635_PRES TD9635_ROCI NEUMANN_LAT NEUMANN_LON NEUMANN_CLASS NEUMANN_WIND NEUMANN_PRES MLC_LAT MLC_LON MLC_CLASS MLC_WIND MLC_PRES USA_GUST BOM_GUST BOM_GUST_PER REUNION_GUST REUNION_GUST_PER USA_SEAHGT USA_SEARAD_NE USA_SEARAD_SE USA_SEARAD_SW USA_SEARAD_NW STORM_SPEED STORM_DIR
1954125N07131 1954 18 WP MM ELSIE 1954-05-05 00:00:00 TS 7.00000 131.417 1008 tokyo main 531 476 OOO______OOO__ jtwc_wp WP021954 7.10000 131.400 35 0 6.50000 131.500 2 1008 0 0 0 7.10000 131.400 1 29 1008 7.10000 131.400 TC 35 7.10000 131.400 2 34 7.10000 131.400 34 1003 60 11 275
1954125N07131 1954 18 WP MM ELSIE 1954-05-05 03:00:00 TS 7.05032 130.870 main 475 420 PPP______PPP__ WP021954 7.09771 130.817 35 0 6.86023 130.905 2 1007 0 0 7.04513 130.935 1 29 1007 7.09771 130.817 TC 35 7.10344 130.927 2 34 7.09771 130.817 34 1003 60 10 275
1954125N07131 1954 18 WP MM ELSIE 1954-05-05 06:00:00 TS 7.08422 130.375 1006 tokyo main 420 376 OOO______OPO__ jtwc_wp WP021954 7.10000 130.300 35 0 7.10000 130.400 2 1006 0 0 0 7.00000 130.500 1 29 1006 7.10000 130.300 TC 35 7.10531 130.453 2 34 7.10000 130.300 34 1003 60 9 273
1954125N07131 1954 18 WP MM ELSIE 1954-05-05 09:00:00 TS 7.09149 129.962 main 376 332 PPP______PPP__ WP021954 7.10738 129.885 35 0 7.14485 130.035 2 1006 0 0 6.97741 130.107 1 29 1006 7.10738 129.885 TC 35 7.10453 129.977 2 34 7.10738 129.885 34 1002 90 8 270
1954125N07131 1954 18 WP MM ELSIE 1954-05-05 12:00:00 TS 7.08333 129.567 1006 tokyo main 332 276 OOO______OOO__ jtwc_wp WP021954 7.10000 129.500 35 0 7.10000 129.700 2 1006 0 0 0 7.00000 129.700 1 29 1006 7.10000 129.500 TC 35 7.10000 129.500 2 34 7.10000 129.500 34 1002 120 9 267
1954125N07131 1954 18 WP MM ELSIE 1954-05-05 15:00:00 TS 7.05416 129.107 main 276 232 PPP______PPP__ WP021954 7.02748 129.057 35 0 7.07002 129.257 2 1006 0 0 7.07756 129.193 1 29 1006 7.02748 129.057 TC 35 7.09496 129.022 2 34 7.02748 129.057 34 1002 120 9 269
1954125N07131 1954 18 WP MM ELSIE 1954-05-05 18:00:00 TS 7.06833 128.642 1006 tokyo main 221 177 OOO______OPO__ jtwc_wp WP021954 7.00000 128.600 35 0 7.10000 128.800 2 1006 0 0 0 7.20000 128.700 1 29 1006 7.00000 128.600 TC 35 7.10999 128.555 2 34 7.00000 128.600 34 1002 120 9 278
1954125N07131 1954 18 WP MM ELSIE 1954-05-05 21:00:00 TS 7.17915 128.202 main 177 132 PPP______PPP__ WP021954 7.10501 128.128 35 0 7.26245 128.393 2 1006 0 0 7.32741 128.327 1 29 1006 7.10501 128.128 TC 35 7.17000 128.110 2 34 7.10501 128.128 34 1002 120 9 290
1954125N07131 1954 18 WP MM ELSIE 1954-05-06 00:00:00 TS 7.36667 127.800 1006 tokyo main 132 99 OOO______OOO__ jtwc_wp WP021954 7.30000 127.700 35 0 7.50000 128.000 2 1006 0 0 0 7.50000 128.000 1 29 1006 7.30000 127.700 TC 35 7.30000 127.700 2 34 7.30000 127.700 34 1002 120 8 300
1954125N07131 1954 18 WP MM ELSIE 1954-05-06 03:00:00 TS 7.59686 127.464 main 99 67 PPP______PPP__ WP021954 7.51991 127.385 35 0 7.74244 127.607 2 1006 0 0 7.73491 127.672 1 29 1006 7.51991 127.385 TC 35 7.54408 127.351 2 34 7.51991 127.385 34 1001 120 8 308
1954125N07131 1954 18 WP MM ELSIE 1954-05-06 06:00:00 TS 7.87577 127.139 1006 tokyo main 59 44 OOO______OPO__ jtwc_wp WP021954 7.80000 127.100 35 0 8.00000 127.200 2 1006 0 0 0 8.00000 127.300 1 29 1006 7.80000 127.100 TC 35 7.85460 127.035 2 34 7.80000 127.100 34 1001 120 9 311
1954125N07131 1954 18 WP MM ELSIE 1954-05-06 09:00:00 TS 8.19088 126.766 main 45 15 PPP______PPP__ WP021954 8.14997 126.765 35 0 8.24997 126.757 2 1006 0 0 8.25754 126.815 1 29 1006 8.14997 126.765 TC 35 8.18784 126.726 2 34 8.14997 126.765 34 1001 120 10 309
1954125N07131 1954 18 WP MM ELSIE 1954-05-06 12:00:00 TS 8.50000 126.367 1006 tokyo main 15 0 OOO______OOO__ jtwc_wp WP021954 8.50000 126.400 35 0 8.50000 126.300 2 1006 0 0 0 8.50000 126.300 1 29 1006 8.50000 126.400 TC 35 8.50000 126.400 2 34 8.50000 126.400 34 1001 120 10 305
1954125N07131 1954 18 WP MM ELSIE 1954-05-06 15:00:00 TS 8.75624 125.961 main 0 0 PPP______PPP__ WP021954 8.77998 126.007 35 0 8.75745 125.850 2 1006 0 0 8.70733 125.865 1 29 1006 8.77998 126.007 TC 35 8.73272 126.030 2 34 8.77998 126.007 34 1000 120 9 300
1954125N07131 1954 18 WP MM ELSIE 1954-05-06 18:00:00 TS 8.97289 125.540 1006 tokyo main 0 0 OOO______OPO__ jtwc_wp WP021954 9.00000 125.600 35 0 9.00000 125.400 2 1006 0 0 0 8.90000 125.400 1 29 1006 9.00000 125.600 TC 35 8.93735 125.637 2 34 9.00000 125.600 34 1000 120 9 295
1954125N07131 1954 18 WP MM ELSIE 1954-05-06 21:00:00 TS 9.15929 125.095 main 24 24 PPP______PPP__ WP021954 9.16496 125.200 35 0 9.22249 124.935 2 1006 0 0 9.11507 124.808 1 29 1006 9.16496 125.200 TC 35 9.12330 125.226 2 34 9.16496 125.200 34 1000 120 9 291
1954125N07131 1954 18 WP MM ELSIE 1954-05-07 00:00:00 TS 9.31667 124.650 1006 tokyo main 46 11 OOO______OOO__ jtwc_wp WP021954 9.30000 124.800 35 0 9.40000 124.500 2 1006 0 0 0 9.30000 124.200 1 29 1006 9.30000 124.800 TC 35 9.30000 124.800 2 34 9.30000 124.800 34 1000 120 9 290
1954125N07131 1954 18 WP MM ELSIE 1954-05-07 03:00:00 TS 9.45793 124.243 main 11 0 PPP______PPP__ WP021954 9.44240 124.415 35 0 9.51487 124.150 2 1006 0 0 9.40739 123.677 1 33 1004 9.44240 124.415 TC 35 9.49815 124.385 2 34 9.44240 124.415 34 999 120 9 289
1954125N07131 1954 18 WP MM ELSIE 1954-05-07 06:00:00 TS 9.59784 123.825 1006 tokyo main 10 0 OOO______OPO__ jtwc_wp WP021954 9.60000 124.000 35 0 9.60000 123.800 2 1006 0 0 0 9.50000 123.200 2 38 1002 9.60000 124.000 TC 35 9.68705 123.952 2 34 9.60000 124.000 34 999 120 9 290
1954125N07131 1954 18 WP MM ELSIE 1954-05-07 09:00:00 TS 9.76786 123.363 main 0 0 PPP______PPP__ WP021954 9.79992 123.530 35 0 9.70000 123.365 2 1006 0 0 9.64996 122.728 2 38 1002 9.79992 123.530 TC 35 9.85744 123.494 2 34 9.79992 123.530 34 998 120 10 290
1954125N07131 1954 18 WP MM ELSIE 1954-05-07 12:00:00 TS 9.93333 122.867 1006 tokyo main 0 0 OOO______OOO__ jtwc_wp WP021954 10.0000 123.000 35 0 9.80000 122.900 2 1006 0 0 0 9.80000 122.300 2 38 1002 10.0000 123.000 TC 35 10.0000 123.000 2 34 10.0000 123.000 34 998 120 10 287
1954125N07131 1954 18 WP MM ELSIE 1954-05-07 15:00:00 TS 10.0699 122.351 main 24 22 PPP______PPP__ WP021954 10.1800 122.408 35 0 9.89234 122.472 2 1006 0 0 9.89989 121.942 2 38 1002 10.1800 122.408 TC 35 10.0874 122.469 2 34 10.1800 122.408 34 997 150 11 283
1954125N07131 1954 18 WP MM ELSIE 1954-05-07 18:00:00 TS 10.1750 121.817 1006 tokyo main 24 24 OOO______OPO__ jtwc_wp WP021954 10.3000 121.800 35 0 10.0000 122.000 2 1006 0 0 0 10.0000 121.600 2 38 1002 10.3000 121.800 TC 35 10.1498 121.902 2 34 10.3000 121.800 34 997 180 11 279
1954125N07131 1954 18 WP MM ELSIE 1954-05-07 21:00:00 TS 10.2378 121.286 main 69 69 PPP______PPP__ WP021954 10.3073 121.257 35 0 10.1426 121.408 2 1006 0 0 10.1499 121.230 2 38 1001 10.3073 121.257 TC 35 10.2123 121.309 2 34 10.3073 121.257 34 996 180 11 277
1954125N07131 1954 18 WP MM ELSIE 1954-05-08 00:00:00 TS 10.3000 120.733 1006 tokyo main 111 55 OOO______OOO__ jtwc_wp WP021954 10.3000 120.700 35 0 10.3000 120.800 2 1006 0 0 0 10.3000 120.800 2 38 1000 10.3000 120.700 TC 35 10.3000 120.700 2 34 10.3000 120.700 34 996 180 11 278
1954125N07131 1954 18 WP MM ELSIE 1954-05-08 03:00:00 TS 10.3978 120.139 main 45 0 PPP______PPP__ WP021954 10.3625 120.057 35 0 10.4497 120.307 2 1006 0 0 10.4075 120.280 2 43 997 10.3625 120.057 TC 35 10.4421 120.077 2 34 10.3625 120.057 34 995 180 12 281
1954125N07131 1954 18 WP MM ELSIE 1954-05-08 06:00:00 TS 10.5354 119.524 1006 tokyo main 0 0 OOO______OPO__ jtwc_wp WP021954 10.5000 119.400 35 0 10.6000 119.800 2 1006 0 0 0 10.5000 119.700 3 48 995 10.5000 119.400 TC 35 10.6124 119.443 2 34 10.5000 119.400 34 995 180 13 285
1954125N07131 1954 18 WP MM ELSIE 1954-05-08 09:00:00 TS 10.7222 118.910 main 40 40 PPP______PPP__ WP021954 10.7349 118.778 35 0 10.7574 119.187 2 1004 0 0 10.5698 119.130 3 58 987 10.7349 118.778 TC 35 10.8015 118.812 2 34 10.7349 118.778 34 994 180 13 288
1954125N07131 1954 18 WP MM ELSIE 1954-05-08 12:00:00 TS 10.9333 118.300 1002 tokyo main 101 101 OOO______OOO__ jtwc_wp WP021954 11.0000 118.200 35 0 10.9000 118.500 2 1002 0 0 0 10.7000 118.500 4 68 980 11.0000 118.200 TC 35 11.0000 118.200 2 34 11.0000 118.200 34 994 180 13 289
1954125N07131 1954 18 WP MM ELSIE 1954-05-08 15:00:00 TS 11.1288 117.702 main 164 164 PPP______PPP__ WP021954 11.2073 117.700 45 0 10.9851 117.742 2 1001 0 0 10.9776 117.750 4 68 980 11.2073 117.700 TC 45 11.1883 117.620 2 44 11.2073 117.700 44 993 210 12 289
1954125N07131 1954 18 WP MM ELSIE 1954-05-08 18:00:00 TS 11.3307 117.110 1000 tokyo main 229 229 OOO______OPO__ jtwc_wp WP021954 11.4000 117.200 55 0 11.1000 117.000 2 1000 0 0 0 11.3000 117.000 4 68 980 11.4000 117.200 TC 55 11.3845 117.062 2 54 11.4000 117.200 54 993 240 12 290
1954125N07131 1954 18 WP MM ELSIE 1954-05-08 21:00:00 TS 11.5430 116.517 main 294 294 PPP______PPP__ WP021954 11.5925 116.615 65 1 11.3273 116.363 2 975 0 0 11.5648 116.370 4 77 965 11.5925 116.615 TC 65 11.5884 116.523 2 64 11.5925 116.615 64 974 240 12 291
1954125N07131 1954 18 WP MM ELSIE 1954-05-09 00:00:00 TS 11.7667 115.933 950 tokyo main 357 357 OOO______OOO__ jtwc_wp WP021954 11.8000 116.000 75 1 11.6000 115.800 9 950 0 0 0 11.8000 115.800 5 87 950 11.8000 116.000 TC 75 11.8000 116.000 3 75 11.8000 116.000 75 955 240 12 292
1954125N07131 1954 18 WP MM ELSIE 1954-05-09 03:00:00 TS 12.0029 115.347 main 416 416 PPP______PPP__ WP021954 12.0500 115.370 75 1 11.8499 115.277 9 947 0 0 11.9999 115.227 5 92 947 12.0500 115.370 TC 75 12.0176 115.465 3 75 12.0500 115.370 75 949 210 12 293
1954125N07131 1954 18 WP MM ELSIE 1954-05-09 06:00:00 TS 12.2404 114.808 945 tokyo main 469 469 OOO______OPO__ jtwc_wp WP021954 12.3000 114.800 75 1 12.1000 114.800 9 945 0 0 0 12.2000 114.700 5 97 945 12.3000 114.800 TC 75 12.2423 114.947 3 75 12.3000 114.800 75 944 180 11 295
1954125N07131 1954 18 WP MM ELSIE 1954-05-09 09:00:00 TS 12.4629 114.353 main 524 488 PPP______PPP__ WP021954 12.4998 114.370 75 1 12.3574 114.335 9 945 0 0 12.4499 114.220 5 97 945 12.4998 114.370 TC 75 12.4708 114.456 3 75 12.4998 114.370 75 940 180 10 298
1954125N07131 1954 18 WP MM ELSIE 1954-05-09 12:00:00 TS 12.6833 113.950 945 tokyo main 488 444 OOO______OOO__ jtwc_wp WP021954 12.7000 114.000 75 1 12.6000 113.900 9 945 0 0 0 12.7000 113.800 5 97 945 12.7000 114.000 TC 75 12.7000 114.000 4 75 12.7000 114.000 75 937 180 9 300
1954125N07131 1954 18 WP MM ELSIE 1954-05-09 15:00:00 TS 12.9103 113.549 main 433 401 PPP______PPP__ WP021954 12.9500 113.593 82 1 12.7999 113.492 9 947 0 0 12.9074 113.442 5 92 947 12.9500 113.593 TC 82 12.9043 113.580 4 81 12.9500 113.593 81 933 180 9 301
1954125N07131 1954 18 WP MM ELSIE 1954-05-09 18:00:00 TS 13.1353 113.166 950 tokyo main 401 360 OOO______OPO__ jtwc_wp WP021954 13.2000 113.200 90 2 13.0000 113.100 9 950 0 0 0 13.1000 113.100 5 87 950 13.2000 113.200 TC 90 13.1121 113.197 4 87 13.2000 113.200 88 930 180 9 300
1954125N07131 1954 18 WP MM ELSIE 1954-05-09 21:00:00 TS 13.3444 112.784 main 360 331 PPP______PPP__ WP021954 13.3999 112.835 95 2 13.2350 112.678 9 952 0 0 13.2926 112.685 5 82 952 13.3999 112.835 TC 95 13.3388 112.840 4 93 13.3999 112.835 94 926 210 8 301
1954125N07131 1954 18 WP MM ELSIE 1954-05-10 00:00:00 TS 13.5667 112.433 955 tokyo main 323 305 OOO______OOO__ jtwc_wp WP021954 13.6000 112.500 100 3 13.5000 112.300 9 955 0 0 0 13.5000 112.300 4 77 955 13.6000 112.500 TC 100 13.6000 112.500 4 100 13.6000 112.500 100 923 240 8 306
1954125N07131 1954 18 WP MM ELSIE 1954-05-10 03:00:00 TS 13.8098 112.135 main 298 280 PPP______PPP__ WP021954 13.8124 112.200 100 3 13.7849 112.035 9 955 0 0 13.7349 112.027 4 77 955 13.8124 112.200 TC 100 13.9018 112.148 4 100 13.8124 112.200 100 925 240 8 314
1954125N07131 1954 18 WP MM ELSIE 1954-05-10 06:00:00 TS 14.1067 111.852 955 tokyo main 281 246 OOO______OPO__ jtwc_wp WP021954 14.1000 111.900 100 3 14.1000 111.800 9 955 0 0 0 14.0000 111.800 4 77 955 14.1000 111.900 TC 100 14.2399 111.812 4 100 14.1000 111.900 100 928 240 9 319
1954125N07131 1954 18 WP MM ELSIE 1954-05-10 09:00:00 TS 14.4926 111.528 main 246 226 PPP______PPP__ WP021954 14.5426 111.535 100 3 14.4350 111.500 9 955 0 0 14.2849 111.565 4 77 955 14.5426 111.535 TC 100 14.6081 111.495 4 100 14.5426 111.535 100 931 240 10 322
1954125N07131 1954 18 WP MM ELSIE 1954-05-10 12:00:00 TS 14.9000 111.217 955 tokyo main 226 209 OOO______OOO__ jtwc_wp WP021954 15.0000 111.200 100 3 14.8000 111.200 9 955 0 0 0 14.6000 111.300 4 77 955 15.0000 111.200 TC 100 15.0000 111.200 4 100 15.0000 111.200 100 934 240 9 324
1954125N07131 1954 18 WP MM ELSIE 1954-05-10 15:00:00 TS 15.2266 110.969 main 211 198 PPP______PPP__ WP021954 15.2849 110.992 100 3 15.1774 110.950 9 955 0 0 14.9200 110.957 4 77 955 15.2849 110.992 TC 100 15.4073 110.932 4 95 15.2849 110.992 100 937 240 8 326
1954125N07131 1954 18 WP MM ELSIE 1954-05-10 18:00:00 TS 15.5891 110.731 955 tokyo main 198 188 OOO______OPO__ jtwc_wp WP021954 15.6000 110.800 100 3 15.6000 110.700 9 955 0 0 0 15.3000 110.600 4 77 955 15.6000 110.800 TC 100 15.8347 110.684 4 90 15.6000 110.800 100 940 240 10 330
1954125N07131 1954 18 WP MM ELSIE 1954-05-10 21:00:00 TS 16.0921 110.441 main 189 186 PPP______PPP__ WP021954 16.1425 110.515 90 2 16.0925 110.400 9 952 0 0 15.7625 110.255 4 77 955 16.1425 110.515 TC 90 16.2698 110.445 4 85 16.1425 110.515 90 943 240 12 331
1954125N07131 1954 18 WP MM ELSIE 1954-05-11 00:00:00 TS 16.6167 110.150 950 tokyo main 186 135 OOO______OOO__ jtwc_wp WP021954 16.7000 110.200 80 1 16.6000 110.100 9 950 0 0 0 16.3000 110.000 4 77 955 16.7000 110.200 TC 80 16.7000 110.200 4 80 16.7000 110.200 80 946 240 11 331
1954125N07131 1954 18 WP MM ELSIE 1954-05-11 03:00:00 TS 17.0371 109.887 main 135 89 PPP______PPP__ WP021954 17.0650 109.892 70 1 17.0499 109.842 9 950 0 0 16.9149 109.912 4 72 957 17.0650 109.892 TC 70 17.0628 109.892 4 75 17.0650 109.892 70 950 210 10 330
1954125N07131 1954 18 WP MM ELSIE 1954-05-11 06:00:00 TS 17.4376 109.647 950 tokyo main 89 44 OOO______OPO__ jtwc_wp WP021954 17.4000 109.600 60 0 17.5000 109.600 9 950 0 0 0 17.5000 109.900 4 68 960 17.4000 109.600 TC 60 17.4254 109.583 4 70 17.4000 109.600 60 954 180 9 331
1954125N07131 1954 18 WP MM ELSIE 1954-05-11 09:00:00 TS 17.8505 109.407 main 35 11 PPP______PPP__ WP021954 17.7900 109.320 60 0 17.9925 109.328 9 950 0 0 17.9150 109.850 4 68 960 17.7900 109.320 TC 60 17.8253 109.308 4 65 17.7900 109.320 60 959 180 10 335
1954125N07131 1954 18 WP MM ELSIE 1954-05-11 12:00:00 TS 18.3333 109.217 950 tokyo main 11 0 OOO______OOO__ jtwc_wp WP021954 18.3000 109.100 60 0 18.5000 109.100 9 950 0 0 0 18.3000 109.800 4 68 960 18.3000 109.100 TC 60 18.3000 109.100 2 60 18.3000 109.100 60 965 180 12 345
1954125N07131 1954 18 WP MM ELSIE 1954-05-11 15:00:00 TS 18.9585 109.097 main 0 0 PPP______PPP__ WP021954 19.0275 108.955 60 0 18.9924 108.985 9 950 0 0 18.8000 109.750 4 63 967 19.0275 108.955 TC 60 18.8763 108.985 2 60 19.0275 108.955 60 970 180 13 353
1954125N07131 1954 18 WP MM ELSIE 1954-05-11 18:00:00 TS 19.6187 109.052 950 tokyo main 0 0 OOO______OPO__ jtwc_wp WP021954 19.8000 108.900 60 0 19.5000 108.900 9 950 0 0 0 19.3000 109.700 3 58 975 19.8000 108.900 TC 60 19.5372 108.946 2 60 19.8000 108.900 60 976 180 13 1
1954125N07131 1954 18 WP MM ELSIE 1954-05-11 21:00:00 TS 20.2214 109.125 main 49 49 PPP______PPP__ WP021954 20.5111 109.121 60 0 20.0499 108.780 9 955 0 0 19.6850 109.657 3 53 978 20.5111 109.121 TC 60 20.2546 108.960 2 60 20.4450 108.927 60 982 150 11 0
1954125N07131 1954 18 WP MM ELSIE 1954-05-12 00:00:00 TS 20.7111 109.044 960 tokyo main 73 70 OOO______OOO__ jtwc_wp WP021954 21.0000 109.000 60 0 20.6000 108.600 9 960 0 0 0 20.1000 109.600 3 48 982 21.0000 109.000 TC 60 21.0000 109.000 2 60 21.0000 109.000 60 988 120 10 317
1954125N07131 1954 18 WP MM ELSIE 1954-05-12 03:00:00 TS 20.9516 108.393 main 59 11 PPP______P____ WP021954 21.0183 107.868 57 0 21.1224 108.337 9 960 0 0 20.6475 109.500 3 43 986 21.0183 107.868 TC 57 2 14 291
1954125N07131 1954 18 WP MM ELSIE 1954-05-12 06:00:00 TS 21.2250 107.600 960 tokyo main 11 0 OOO______O____ jtwc_wp WP021954 21.0000 106.500 55 0 21.6000 108.000 9 960 0 0 0 21.3000 109.400 2 38 990 21.0000 106.500 TC 55 2 15 303
1954125N07131 1954 18 WP MM ELSIE 1954-05-12 09:00:00 TS 21.7392 107.079 main 0 0 PPP______P____ WP021954 21.4234 105.675 47 0 22.0298 107.637 9 970 0 0 22.0800 109.328 2 33 992 21.4234 105.675 TC 47 2 14 320
1954125N07131 1954 18 WP MM ELSIE 1954-05-12 12:00:00 TS 22.3000 106.625 980 tokyo main 0 0 OOO______O____ jtwc_wp WP021954 22.0000 105.000 40 0 22.4000 107.200 9 980 0 0 0 22.8000 109.300 1 29 995 22.0000 105.000 TC 40 13 320
1954125N07131 1954 18 WP MM ELSIE 1954-05-12 15:00:00 TS 22.7614 106.140 main 0 0 PPP______P____ WP021954 22.5263 104.276 32 -1 22.7155 106.675 9 985 0 0 23.2775 109.332 1 29 997 22.5263 104.276 TC 32 13 313
1954125N07131 1954 18 WP MM ELSIE 1954-05-12 18:00:00 TS 23.1500 105.625 990 tokyo main 0 OOO______O____ jtwc_wp WP021954 23.0000 103.500 25 -1 23.0000 106.100 9 990 0 0 0 23.6000 109.400 1 29 1000 23.0000 103.500 TC 25 12 309

Digital Typhoon Data and Search

About IBTrACS Database

This database is a web-friendly format of International Best Track Archive for Climate Stewardship (IBTrACS), a global best track data archive curated by NOAA dating back to 1842.

Updated: 2021-12-03